Abie, Nebraska
Current Conditions -  °F | °C
As of 1:35 AM on Wednesday 22 Oct 2014 (Local Time) from KAHQ Reporting Station
Clear Clear  
Wind Chill: 54°   Ceiling: Unl
Heat Index: 54°   Visibility: 10mi
Dew Point: 41°   Wind: 7mph
Humidity: 62%   Direction: 130°SE
Pressure: 30.05"   Gusts: NA
Location:  41.33°N, 96.95°W
Report Text: KAHQ 220635Z AUTO 13006KT 10SM CLR 12/05 A3005 RMK AO2 T01240052
Loading
Personal Weather Stations






























Interactive Weather Map
Tropical Storm Tracking
New forecast layout! Learn more

10-Day Weather Forecast

Advertisements
Track Severe Weather on mobile